Aérodrome :
LOGIN :

S'inscrire | Disclaimer

   EN    FR    IT 

 










Légende :    VFR   VFR Marginal   IFR   IFR Intensif   IFR Très Intensif
Visi : 
Plafond : 
>= 8 km
>= 3000ft
5 à 8 km
1000 à 3000 ft
1500m à 5 km
500 à 1000 ft
800 à 1500m
200 à 500 ft
< 800m
< 200 ft
Symboles :   Orages  Brouillard  Fortes neiges  Fortes précipitations  Vent > 20 kt
SIGMETs :   Divers  Orages  Givrage  Turbulence  Onde Orograph.  Cendres Volcan.






- Altitude de l'aérodrome : 13 ft
- Code IATA : SNR


LFRZ - St-Nazaire

DERNIER METAR :
  • 151000Z AUTO 23009KT 9999 FEW038/// SCT210/// ///TCU 11/06 Q1005 TEMPO 4000 SHRA

METARs EXPIRÉS :
  • 150930Z AUTO 23007KT 9999 SCT039 SCT047 10/07 Q1005 TEMPO 4000 SHRA SCT020TCU
  • 150900Z AUTO 24008KT CAVOK 09/07 Q1005 TEMPO 4000 SHRA SCT020TCU
  • 150830Z AUTO 23011KT CAVOK 10/07 Q1004 TEMPO 4000 SHRA SCT020TCU
  • 150800Z AUTO 24009KT CAVOK 09/06 Q1004 TEMPO 4000 SHRA SCT020TCU

TAF TAF LFRZ
Valide du 15 à 06h jusqu'au 16 à 06h UTC


150500Z 1506/1606 23012KT 9999 SCT020 BKN040
PROB30
TEMPO 1506/1522 4000 SHRA SCT020TCU
BECMG 1604/1606 17010KT -RA



MET'MAP, la Météo Aéronautique d'un coup d'oeil ! - Copyright ORBIFLY Décembre 2007 - Disclaimer

ORBIFLY MET'MAP TEAM :

Programmation & Développement : Alexandra Zaïnal
Sur une idée originale de : Baudouin d'Aumeries
Assistance à la programmation : Marc-Olivier Méhu
Soutien technique & logistique : Manuel Goepfert

Contact : metmap@orbifly.com




SOURCES & CREDITS :

   NOAA